createdAt,value
2022-09-11T00:01:32.674Z,68.48
2022-09-11T00:03:59.801Z,68.95
2022-09-11T00:06:30.052Z,69.17
2022-09-11T00:09:03.639Z,68.93
2022-09-11T00:11:37.720Z,69.48
2022-09-11T00:14:04.817Z,69.36
2022-09-11T00:16:37.239Z,69.51
2022-09-11T00:19:07.298Z,69.95
2022-09-11T00:21:34.676Z,70.17
2022-09-11T00:24:01.746Z,70.18
2022-09-11T00:26:28.486Z,69.96
2022-09-11T00:28:55.792Z,70.31
2022-09-11T00:31:26.429Z,69.98
2022-09-11T00:33:54.199Z,70.44
2022-09-11T00:36:25.859Z,70.70
2022-09-11T00:38:53.211Z,70.97
2022-09-11T00:41:29.040Z,71.18
2022-09-11T00:44:03.561Z,71.06
2022-09-11T00:46:44.751Z,71.29
2022-09-11T00:49:26.602Z,71.35
2022-09-11T00:51:56.109Z,71.37
2022-09-11T00:54:30.313Z,71.73
2022-09-11T00:57:00.484Z,71.73
2022-09-11T00:59:31.131Z,71.71
2022-09-11T01:01:58.027Z,71.70
2022-09-11T01:04:24.990Z,71.77
2022-09-11T01:06:56.082Z,71.98
2022-09-11T01:09:26.060Z,71.84
2022-09-11T01:12:19.808Z,72.07
2022-09-11T01:15:10.133Z,72.03
2022-09-11T01:17:58.781Z,71.79
2022-09-11T01:20:36.472Z,71.58
2022-09-11T01:23:20.374Z,72.07
2022-09-11T01:26:15.147Z,71.87
2022-09-11T01:29:09.203Z,72.00
2022-09-11T01:31:50.535Z,71.51
2022-09-11T01:34:55.555Z,72.02
2022-09-11T01:37:29.367Z,72.01
2022-09-11T01:40:04.184Z,72.03
2022-09-11T01:42:36.155Z,71.82
2022-09-11T01:45:05.891Z,71.47
2022-09-11T01:47:35.298Z,72.33
2022-09-11T01:50:22.985Z,71.91
2022-09-11T01:52:58.818Z,72.61
2022-09-11T01:55:39.208Z,71.91
2022-09-11T01:58:10.460Z,72.07
2022-09-11T02:00:45.714Z,72.05
2022-09-11T02:03:21.340Z,72.64
2022-09-11T02:05:58.039Z,72.43
2022-09-11T02:08:37.328Z,72.04
2022-09-11T02:11:10.750Z,72.36
2022-09-11T02:13:42.981Z,72.25
2022-09-11T02:16:19.539Z,72.58
2022-09-11T02:19:01.735Z,72.55
2022-09-11T02:21:29.262Z,72.51
2022-09-11T02:23:56.043Z,71.95
2022-09-11T02:26:29.200Z,72.68
2022-09-11T02:28:56.799Z,72.62
2022-09-11T02:31:24.482Z,72.92
2022-09-11T02:33:51.506Z,72.68
2022-09-11T02:36:49.881Z,72.82
2022-09-11T02:39:55.370Z,72.81
2022-09-11T02:42:31.293Z,72.37
2022-09-11T02:45:14.823Z,73.03
2022-09-11T02:48:08.654Z,72.63
2022-09-11T02:50:56.484Z,72.28
2022-09-11T02:53:35.455Z,72.56
2022-09-11T02:56:18.851Z,73.50
2022-09-11T02:59:07.385Z,72.99
2022-09-11T03:01:54.020Z,73.50
2022-09-11T03:04:25.057Z,73.84
2022-09-11T03:06:54.347Z,73.42
2022-09-11T03:09:21.155Z,73.42
2022-09-11T03:11:51.749Z,73.98
2022-09-11T03:14:19.839Z,73.33
2022-09-11T03:16:46.847Z,73.22
2022-09-11T03:19:14.214Z,73.65
2022-09-11T03:21:40.999Z,73.51
2022-09-11T03:24:07.969Z,73.13
2022-09-11T03:26:37.045Z,73.31
2022-09-11T03:29:04.274Z,72.83
2022-09-11T03:31:32.311Z,72.97
2022-09-11T03:34:00.678Z,72.78
2022-09-11T03:36:28.164Z,72.86
2022-09-11T03:38:54.977Z,73.49
2022-09-11T03:41:21.990Z,73.30
2022-09-11T03:43:48.719Z,73.14
2022-09-11T03:46:15.690Z,73.16
2022-09-11T03:48:42.499Z,73.40
2022-09-11T03:51:09.340Z,73.14
2022-09-11T03:53:36.126Z,73.36
2022-09-11T03:56:03.132Z,73.00
2022-09-11T03:58:35.229Z,73.23
2022-09-11T04:01:02.112Z,73.15
2022-09-11T04:03:29.723Z,73.46
2022-09-11T04:06:01.282Z,72.78
2022-09-11T04:08:30.995Z,72.98
2022-09-11T04:10:58.992Z,73.24
2022-09-11T04:13:31.150Z,73.06
2022-09-11T04:16:04.427Z,72.84
2022-09-11T04:18:37.369Z,73.52
2022-09-11T04:21:10.396Z,73.20
2022-09-11T04:23:38.539Z,73.34
2022-09-11T04:26:19.823Z,72.65
2022-09-11T04:28:51.282Z,73.34
2022-09-11T04:31:19.288Z,72.96
2022-09-11T04:33:47.652Z,72.97
2022-09-11T04:36:17.832Z,72.73
2022-09-11T04:38:46.394Z,72.64
2022-09-11T04:41:15.881Z,72.47
2022-09-11T04:43:43.165Z,72.33
2022-09-11T04:46:15.974Z,72.31
2022-09-11T04:48:48.881Z,72.34
2022-09-11T04:51:24.158Z,72.34
2022-09-11T04:53:52.416Z,72.20
2022-09-11T04:56:20.077Z,72.27
2022-09-11T04:58:53.684Z,71.89
2022-09-11T05:01:22.170Z,72.13
2022-09-11T05:03:51.987Z,71.98
2022-09-11T05:06:19.324Z,71.74
2022-09-11T05:08:47.652Z,71.94
2022-09-11T05:11:18.667Z,71.78
2022-09-11T05:13:46.846Z,71.59
2022-09-11T05:16:16.681Z,71.80
2022-09-11T05:18:49.198Z,72.24
2022-09-11T05:21:16.683Z,72.17
2022-09-11T05:23:47.923Z,71.97
2022-09-11T05:26:18.203Z,71.79
2022-09-11T05:28:45.592Z,72.78
2022-09-11T05:31:17.975Z,71.63
2022-09-11T05:33:45.802Z,72.04
2022-09-11T05:36:14.542Z,72.85
2022-09-11T05:38:42.356Z,73.94
2022-09-11T05:41:12.713Z,74.69
2022-09-11T05:43:41.678Z,75.80
2022-09-11T05:46:11.916Z,76.12
2022-09-11T05:48:39.164Z,75.10
2022-09-11T05:51:09.816Z,75.26
2022-09-11T05:53:37.597Z,75.72
2022-09-11T05:56:08.599Z,75.60
2022-09-11T05:58:36.399Z,75.12
2022-09-11T06:01:11.183Z,75.44
2022-09-11T06:03:40.425Z,75.05
2022-09-11T06:06:12.444Z,75.24
2022-09-11T06:08:40.996Z,74.15
2022-09-11T06:11:08.468Z,74.85
2022-09-11T06:13:38.868Z,74.75
2022-09-11T06:16:18.587Z,75.26
2022-09-11T06:18:47.601Z,75.22
2022-09-11T06:21:15.511Z,75.14
2022-09-11T06:23:50.835Z,75.78
2022-09-11T06:26:25.192Z,75.91
2022-09-11T06:28:54.396Z,76.63
2022-09-11T06:31:26.070Z,77.28
2022-09-11T06:33:54.718Z,78.18
2022-09-11T06:36:24.116Z,77.61
2022-09-11T06:38:56.349Z,76.94
2022-09-11T06:41:26.394Z,77.88
2022-09-11T06:43:58.396Z,76.71
2022-09-11T06:46:27.495Z,77.55
2022-09-11T06:48:56.973Z,75.94
2022-09-11T06:51:26.681Z,75.84
2022-09-11T06:53:55.421Z,76.53
2022-09-11T06:56:22.233Z,75.75
2022-09-11T06:58:50.422Z,75.63
2022-09-11T07:01:20.344Z,75.21
2022-09-11T07:03:54.845Z,75.85
2022-09-11T07:06:27.328Z,75.44
2022-09-11T07:08:58.152Z,75.12
2022-09-11T07:11:25.673Z,74.68
2022-09-11T07:13:53.949Z,74.99
2022-09-11T07:16:20.763Z,74.53
2022-09-11T07:18:53.875Z,74.65
2022-09-11T07:21:25.675Z,74.62
2022-09-11T07:23:59.440Z,75.11
2022-09-11T07:26:31.022Z,74.97
2022-09-11T07:29:04.318Z,74.30
2022-09-11T07:31:32.961Z,75.39
2022-09-11T07:34:00.700Z,74.44
2022-09-11T07:36:30.120Z,74.68
2022-09-11T07:38:58.144Z,75.38
2022-09-11T07:41:32.203Z,74.61
2022-09-11T07:44:03.267Z,74.49
2022-09-11T07:46:31.813Z,74.24
2022-09-11T07:49:02.415Z,74.39
2022-09-11T07:51:30.503Z,74.22
2022-09-11T07:54:02.573Z,73.60
2022-09-11T07:56:33.872Z,72.99
2022-09-11T07:59:02.289Z,72.32
2022-09-11T08:01:31.416Z,73.03
2022-09-11T08:04:01.443Z,72.38
2022-09-11T08:06:31.064Z,72.69
2022-09-11T08:09:03.941Z,72.34
2022-09-11T08:11:37.574Z,71.22
2022-09-11T08:14:04.504Z,71.26
2022-09-11T08:16:32.152Z,71.76
2022-09-11T08:19:00.397Z,71.58
2022-09-11T08:21:27.275Z,71.35
2022-09-11T08:23:54.527Z,71.14
2022-09-11T08:26:27.465Z,71.11
2022-09-11T08:28:57.958Z,70.98
2022-09-11T08:31:27.989Z,70.36
2022-09-11T08:33:57.576Z,70.26
2022-09-11T08:36:24.695Z,69.83
2022-09-11T08:38:52.998Z,69.51
2022-09-11T08:41:23.770Z,69.65
2022-09-11T08:44:13.055Z,69.13
2022-09-11T08:46:48.455Z,69.05
2022-09-11T08:49:29.022Z,69.64
2022-09-11T08:52:01.380Z,68.49
2022-09-11T08:54:33.117Z,69.28
2022-09-11T08:57:14.470Z,69.26
2022-09-11T09:00:06.982Z,68.86
2022-09-11T09:03:13.377Z,68.55
2022-09-11T09:06:08.083Z,68.60
2022-09-11T09:08:49.904Z,68.27
2022-09-11T09:11:51.166Z,68.11
2022-09-11T09:14:42.385Z,67.92
2022-09-11T09:17:22.228Z,67.30
2022-09-11T09:20:04.410Z,66.05
2022-09-11T09:22:48.625Z,66.17
2022-09-11T09:25:21.329Z,65.34
2022-09-11T09:27:57.928Z,65.89
2022-09-11T09:30:25.367Z,65.74
2022-09-11T09:32:55.637Z,66.47
2022-09-11T09:35:45.269Z,67.10
2022-09-11T09:38:26.414Z,66.37
2022-09-11T09:41:03.578Z,66.97
2022-09-11T09:43:45.559Z,66.96
2022-09-11T09:46:36.156Z,66.73
2022-09-11T09:49:03.200Z,66.84
2022-09-11T09:51:30.031Z,66.97
2022-09-11T09:54:01.522Z,67.76
2022-09-11T09:56:31.370Z,66.89
2022-09-11T09:59:18.869Z,66.62
2022-09-11T10:01:51.405Z,67.19
2022-09-11T10:04:20.548Z,66.92
2022-09-11T10:06:50.682Z,66.35
2022-09-11T10:09:29.547Z,66.54
2022-09-11T10:12:02.482Z,66.35
2022-09-11T10:14:50.292Z,66.29
2022-09-11T10:17:28.334Z,66.04
2022-09-11T10:19:56.884Z,66.61
2022-09-11T10:22:29.665Z,67.31
2022-09-11T10:25:09.596Z,69.97
2022-09-11T10:27:58.477Z,72.49
2022-09-11T10:30:37.446Z,75.26
2022-09-11T10:33:33.692Z,78.70
2022-09-11T10:36:03.787Z,79.36
2022-09-11T10:38:51.503Z,79.72
2022-09-11T10:41:23.465Z,80.39
2022-09-11T10:44:23.445Z,81.48
2022-09-11T10:47:05.879Z,82.26
2022-09-11T10:49:32.926Z,83.10
2022-09-11T10:52:17.434Z,81.93
2022-09-11T10:55:12.437Z,82.93
2022-09-11T10:57:45.252Z,81.61
2022-09-11T11:00:25.130Z,80.92
2022-09-11T11:03:10.655Z,81.91
2022-09-11T11:05:45.971Z,84.00
2022-09-11T11:08:15.778Z,84.36
2022-09-11T11:11:01.555Z,82.50
2022-09-11T11:13:39.644Z,83.37
2022-09-11T11:16:43.680Z,83.81
2022-09-11T11:19:31.972Z,83.37
2022-09-11T11:22:22.212Z,83.45
2022-09-11T11:25:16.369Z,81.52
2022-09-11T11:28:11.186Z,81.64
2022-09-11T11:31:15.824Z,83.05
2022-09-11T11:33:42.583Z,83.82
2022-09-11T11:36:33.444Z,83.71
2022-09-11T11:39:16.574Z,82.32
2022-09-11T11:41:47.026Z,83.14
2022-09-11T11:44:50.544Z,81.79
2022-09-11T11:47:21.854Z,80.80
2022-09-11T11:50:03.679Z,81.44
2022-09-11T11:52:33.165Z,82.31
2022-09-11T11:55:15.927Z,82.32
2022-09-11T11:57:50.938Z,83.72
2022-09-11T12:00:18.718Z,83.52
2022-09-11T12:03:10.642Z,82.20
2022-09-11T12:05:38.664Z,81.29
2022-09-11T12:08:12.339Z,82.13
2022-09-11T12:10:41.850Z,81.91
2022-09-11T12:13:19.920Z,81.42
2022-09-11T12:16:11.359Z,82.69
2022-09-11T12:18:38.951Z,82.23
2022-09-11T12:21:31.816Z,84.12
2022-09-11T12:23:58.571Z,81.11
2022-09-11T12:26:26.911Z,81.41
2022-09-11T12:29:12.952Z,81.20
2022-09-11T12:31:52.028Z,81.35
2022-09-11T12:34:52.259Z,82.49
2022-09-11T12:37:35.426Z,82.87
2022-09-11T12:40:14.161Z,83.46
2022-09-11T12:42:56.560Z,82.33
2022-09-11T12:45:32.584Z,82.36
2022-09-11T12:48:12.682Z,82.95
2022-09-11T12:50:48.119Z,83.03
2022-09-11T12:53:21.068Z,83.22
2022-09-11T12:56:08.402Z,82.86
2022-09-11T12:58:39.153Z,83.72
2022-09-11T13:01:11.625Z,84.65
2022-09-11T13:03:49.559Z,85.05
2022-09-11T13:06:17.704Z,83.79
2022-09-11T13:08:55.632Z,83.64
2022-09-11T13:11:47.003Z,81.96
2022-09-11T13:14:28.125Z,83.64
2022-09-11T13:17:03.627Z,82.51
2022-09-11T13:19:37.094Z,81.58
2022-09-11T13:22:29.377Z,81.57
2022-09-11T13:25:22.604Z,80.52
2022-09-11T13:27:52.727Z,80.19
2022-09-11T13:30:22.307Z,80.42
2022-09-11T13:32:59.637Z,79.23
2022-09-11T13:35:29.280Z,78.66
2022-09-11T13:38:11.186Z,76.23
2022-09-11T13:40:58.847Z,75.94
2022-09-11T13:43:33.014Z,76.55
2022-09-11T13:46:10.818Z,76.26
2022-09-11T13:48:37.638Z,76.17
2022-09-11T13:51:05.075Z,74.83
2022-09-11T13:53:32.856Z,75.71
2022-09-11T13:55:59.592Z,75.75
2022-09-11T13:58:30.863Z,75.96
2022-09-11T14:01:10.651Z,75.07
2022-09-11T14:03:42.832Z,75.13
2022-09-11T14:06:15.330Z,73.99
2022-09-11T14:08:49.004Z,72.06
2022-09-11T14:11:28.052Z,72.99
2022-09-11T14:14:30.021Z,74.22
2022-09-11T14:16:59.980Z,74.19
2022-09-11T14:19:31.253Z,73.34
2022-09-11T14:21:59.064Z,72.24
2022-09-11T14:24:27.097Z,72.40
2022-09-11T14:26:54.464Z,71.80
2022-09-11T14:29:26.006Z,71.48
2022-09-11T14:31:53.479Z,72.69
2022-09-11T14:34:29.474Z,70.67
2022-09-11T14:37:11.334Z,71.15
2022-09-11T14:39:47.554Z,70.66
2022-09-11T14:42:22.635Z,69.76
2022-09-11T14:44:49.598Z,70.29
2022-09-11T14:47:19.218Z,69.81
2022-09-11T14:49:47.150Z,69.44
2022-09-11T14:52:17.049Z,69.28
2022-09-11T14:54:44.809Z,68.24
2022-09-11T14:57:17.215Z,67.41
2022-09-11T14:59:47.151Z,67.26
2022-09-11T15:02:18.252Z,68.11
2022-09-11T15:04:45.061Z,67.05
2022-09-11T15:07:13.677Z,67.48
2022-09-11T15:09:41.401Z,67.10
2022-09-11T15:12:09.919Z,67.21
2022-09-11T15:14:55.544Z,67.03
2022-09-11T15:17:22.797Z,67.00
2022-09-11T15:19:49.609Z,67.17
2022-09-11T15:22:17.177Z,67.87
2022-09-11T15:24:43.901Z,67.79
2022-09-11T15:27:10.663Z,67.14
2022-09-11T15:29:37.524Z,68.14
2022-09-11T15:32:04.516Z,67.32
2022-09-11T15:34:31.262Z,67.09
2022-09-11T15:36:58.223Z,67.79
2022-09-11T15:39:25.066Z,67.21
2022-09-11T15:41:52.539Z,67.97
2022-09-11T15:44:22.287Z,68.73
2022-09-11T15:46:51.088Z,67.22
2022-09-11T15:49:19.289Z,67.81
2022-09-11T15:51:46.166Z,66.97
2022-09-11T15:54:13.088Z,67.34
2022-09-11T15:56:39.875Z,67.97
2022-09-11T15:59:06.609Z,68.14
2022-09-11T16:01:35.089Z,70.04
2022-09-11T16:04:08.393Z,71.67
2022-09-11T16:06:38.401Z,72.90
2022-09-11T16:09:08.397Z,75.56
2022-09-11T16:11:35.618Z,78.80
2022-09-11T16:14:03.349Z,81.10
2022-09-11T16:16:30.038Z,83.01
2022-09-11T16:18:56.879Z,83.61
2022-09-11T16:21:23.615Z,83.34
2022-09-11T16:23:55.015Z,83.14
2022-09-11T16:26:23.580Z,84.45
2022-09-11T16:28:50.479Z,84.24
2022-09-11T16:31:17.275Z,85.42
2022-09-11T16:33:44.644Z,85.24
2022-09-11T16:36:17.308Z,84.95
2022-09-11T16:38:45.742Z,84.54
2022-09-11T16:41:15.311Z,85.07
2022-09-11T16:43:44.238Z,84.81
2022-09-11T16:46:13.908Z,84.67
2022-09-11T16:48:41.595Z,86.17
2022-09-11T16:51:08.361Z,86.38
2022-09-11T16:53:35.532Z,85.43
2022-09-11T16:56:10.310Z,85.77
2022-09-11T16:58:37.965Z,86.28
2022-09-11T17:01:09.464Z,86.44
2022-09-11T17:03:41.399Z,86.68
2022-09-11T17:06:09.514Z,88.11
2022-09-11T17:08:36.404Z,88.18
2022-09-11T17:11:03.148Z,88.02
2022-09-11T17:13:30.055Z,87.73
2022-09-11T17:16:05.464Z,88.04
2022-09-11T17:18:33.286Z,88.10
2022-09-11T17:21:04.527Z,87.61
2022-09-11T17:23:35.610Z,87.53
2022-09-11T17:26:07.606Z,87.47
2022-09-11T17:28:37.056Z,87.77
2022-09-11T17:31:05.476Z,88.25
2022-09-11T17:33:35.132Z,87.73
2022-09-11T17:36:04.107Z,87.66
2022-09-11T17:38:31.531Z,87.43
2022-09-11T17:41:00.369Z,87.82
2022-09-11T17:43:27.766Z,88.35
2022-09-11T17:46:07.103Z,89.11
2022-09-11T17:48:34.941Z,88.20
2022-09-11T17:51:08.260Z,88.29
2022-09-11T17:53:38.395Z,87.40
2022-09-11T17:56:09.478Z,87.28
2022-09-11T17:58:37.564Z,86.99
2022-09-11T18:01:05.236Z,86.87
2022-09-11T18:03:33.124Z,86.60
2022-09-11T18:06:02.110Z,86.88
2022-09-11T18:08:37.173Z,85.71
2022-09-11T18:11:07.102Z,85.66
2022-09-11T18:13:34.593Z,85.54
2022-09-11T18:16:03.679Z,86.48
2022-09-11T18:18:31.415Z,86.47
2022-09-11T18:21:04.882Z,85.52
2022-09-11T18:23:32.177Z,85.44
2022-09-11T18:25:59.878Z,85.51
2022-09-11T18:28:27.216Z,85.92
2022-09-11T18:31:01.702Z,85.98
2022-09-11T18:33:29.038Z,85.73
2022-09-11T18:35:56.469Z,86.84
2022-09-11T18:38:23.858Z,86.83
2022-09-11T18:40:55.480Z,86.04
2022-09-11T18:43:22.815Z,86.43
2022-09-11T18:45:49.630Z,85.95
2022-09-11T18:48:16.791Z,86.55
2022-09-11T18:50:44.002Z,86.19
2022-09-11T18:53:11.247Z,86.71
2022-09-11T18:55:38.636Z,86.68
2022-09-11T18:58:06.113Z,86.71
2022-09-11T19:00:33.329Z,86.38
2022-09-11T19:03:00.364Z,86.82
2022-09-11T19:05:27.336Z,85.84
2022-09-11T19:07:56.448Z,86.03
2022-09-11T19:10:24.630Z,86.20
2022-09-11T19:12:51.598Z,86.45
2022-09-11T19:15:19.058Z,85.71
2022-09-11T19:17:48.046Z,86.03
2022-09-11T19:20:17.049Z,86.27
2022-09-11T19:22:44.263Z,86.80
2022-09-11T19:25:11.097Z,85.64
2022-09-11T19:27:38.109Z,85.84
2022-09-11T19:30:06.346Z,85.98
2022-09-11T19:32:33.860Z,86.35
2022-09-11T19:35:01.015Z,85.73
2022-09-11T19:37:28.132Z,86.14
2022-09-11T19:39:55.294Z,85.56
2022-09-11T19:42:22.629Z,85.64
2022-09-11T19:44:53.044Z,84.82
2022-09-11T19:47:22.704Z,85.47
2022-09-11T19:49:49.824Z,85.17
2022-09-11T19:52:16.788Z,85.42
2022-09-11T19:54:43.817Z,85.17
2022-09-11T19:57:10.741Z,83.98
2022-09-11T19:59:37.712Z,84.42
2022-09-11T20:02:05.847Z,84.24
2022-09-11T20:04:32.992Z,83.41
2022-09-11T20:07:00.512Z,83.66
2022-09-11T20:09:31.299Z,83.66
2022-09-11T20:12:00.726Z,83.05
2022-09-11T20:14:29.030Z,83.11
2022-09-11T20:16:55.793Z,83.18
2022-09-11T20:19:22.668Z,82.91
2022-09-11T20:21:49.655Z,83.32
2022-09-11T20:24:16.441Z,83.96
2022-09-11T20:26:43.214Z,83.86
2022-09-11T20:29:13.874Z,83.97
2022-09-11T20:31:46.994Z,83.14
2022-09-11T20:34:16.268Z,83.34
2022-09-11T20:36:43.172Z,83.50
2022-09-11T20:39:12.035Z,83.90
2022-09-11T20:41:39.684Z,83.22
2022-09-11T20:44:08.126Z,83.28
2022-09-11T20:46:34.946Z,83.96
2022-09-11T20:49:01.862Z,83.42
2022-09-11T20:51:28.958Z,83.13
2022-09-11T20:53:56.159Z,82.83
2022-09-11T20:56:23.639Z,83.06
2022-09-11T20:58:50.698Z,82.58
2022-09-11T21:01:21.040Z,82.48
2022-09-11T21:03:53.454Z,82.72
2022-09-11T21:06:25.519Z,82.71
2022-09-11T21:08:54.752Z,83.09
2022-09-11T21:11:22.192Z,83.35
2022-09-11T21:13:49.016Z,83.02
2022-09-11T21:16:16.668Z,83.76
2022-09-11T21:18:49.510Z,83.89
2022-09-11T21:21:17.408Z,84.41
2022-09-11T21:23:45.289Z,84.68
2022-09-11T21:26:14.354Z,84.44
2022-09-11T21:28:41.875Z,84.82
2022-09-11T21:31:09.797Z,85.07
2022-09-11T21:33:37.913Z,84.04
2022-09-11T21:36:05.976Z,83.95
2022-09-11T21:38:33.219Z,83.68
2022-09-11T21:41:01.725Z,83.90
2022-09-11T21:43:29.098Z,83.61
2022-09-11T21:45:56.158Z,83.61
2022-09-11T21:48:24.074Z,83.68
2022-09-11T21:50:51.365Z,83.54
2022-09-11T21:53:18.969Z,83.69
2022-09-11T21:55:47.341Z,83.41
2022-09-11T21:58:21.009Z,83.44
2022-09-11T22:00:49.328Z,83.21
2022-09-11T22:03:18.375Z,82.96
2022-09-11T22:05:47.235Z,83.65
2022-09-11T22:08:17.611Z,82.41
2022-09-11T22:10:47.007Z,82.77
2022-09-11T22:13:14.220Z,82.57
2022-09-11T22:15:46.514Z,82.20
2022-09-11T22:18:14.352Z,82.78
2022-09-11T22:20:42.141Z,82.10
2022-09-11T22:23:14.855Z,81.36
2022-09-11T22:25:41.683Z,81.85
2022-09-11T22:28:08.912Z,81.51
2022-09-11T22:30:36.254Z,81.31
2022-09-11T22:33:03.105Z,81.01
2022-09-11T22:35:34.675Z,81.24
2022-09-11T22:38:01.481Z,81.35
2022-09-11T22:40:28.334Z,81.54
2022-09-11T22:42:55.066Z,81.27
2022-09-11T22:45:21.863Z,81.46
2022-09-11T22:47:48.643Z,81.92
2022-09-11T22:50:15.603Z,81.56
2022-09-11T22:52:42.447Z,81.48
2022-09-11T22:55:09.573Z,81.49
2022-09-11T22:57:36.515Z,81.24
2022-09-11T23:00:07.975Z,81.32
2022-09-11T23:02:35.380Z,81.50
2022-09-11T23:05:03.328Z,81.28
2022-09-11T23:07:30.249Z,81.22
2022-09-11T23:09:57.078Z,81.13
2022-09-11T23:12:23.889Z,81.33
2022-09-11T23:14:50.688Z,81.13
2022-09-11T23:17:17.520Z,82.15
2022-09-11T23:19:44.258Z,82.80
2022-09-11T23:22:11.226Z,83.45
2022-09-11T23:24:37.976Z,83.66
2022-09-11T23:27:04.921Z,84.22
2022-09-11T23:29:31.790Z,84.51
2022-09-11T23:31:58.642Z,84.65
2022-09-11T23:34:25.570Z,85.20
2022-09-11T23:36:52.369Z,84.71
2022-09-11T23:39:19.191Z,84.47
2022-09-11T23:41:45.922Z,84.16
2022-09-11T23:44:12.773Z,83.82
2022-09-11T23:46:39.460Z,83.28
2022-09-11T23:49:06.359Z,83.50
2022-09-11T23:51:33.424Z,83.15
2022-09-11T23:54:00.201Z,83.08
2022-09-11T23:56:26.993Z,82.72
2022-09-11T23:58:53.833Z,82.26
